Moose Lake, Minnesota
Current Conditions -  °F | °C
As of 2:33 AM on Sunday 26 Oct 2014 (Local Time) from KMZH Reporting Station
Clear Clear  
Wind Chill: 36°   Ceiling: Unl
Heat Index: 36°   Visibility: 10mi
Dew Point: 27°   Wind: 0mph
Humidity: 70%   Direction: NA
Pressure: 29.98"   Gusts: NA
Location:  46.45°N, 92.76°W
Report Text: KMZH 260733Z AUTO 00000KT 10SM CLR 02/M03 A2998 RMK AO2
Loading
Personal Weather Stations






























Interactive Weather Map
Tropical Storm Tracking
New forecast layout! Learn more

10-Day Weather Forecast

Advertisements
Track Severe Weather on mobile